Time;durP1;ratioP1;P1;durP2;ratioP2;P2;SDS_P1;SDS_P2;PMS_P1;PMS_P2;Temp;Humidity;BMP_temperature;BMP_pressure;BME280_temperature;BME280_humidity;BME280_pressure;Samples;Min_cycle;Max_cycle;Signal;HPM_P1;HPM_P2
2023/09/06 00:01:05;;;;;;;;;4.25;4.25;;;;;22.29;68.34;101852.47;5013345;28;8908;-70
2023/09/06 00:03:32;;;;;;;;;4.25;4.00;;;;;22.27;68.20;101849.13;5013987;28;9572;-69
2023/09/06 00:05:59;;;;;;;;;4.00;4.00;;;;;22.24;68.23;101846.03;5006781;28;8929;-69
2023/09/06 00:08:26;;;;;;;;;3.75;3.75;;;;;22.21;68.18;101856.44;5012999;28;8850;-69
2023/09/06 00:10:53;;;;;;;;;3.00;3.00;;;;;22.16;68.00;101859.09;5008764;28;8944;-69
2023/09/06 00:13:20;;;;;;;;;5.25;5.25;;;;;22.14;68.25;101858.50;4992637;28;8846;-69
2023/09/06 00:15:48;;;;;;;;;2.75;2.00;;;;;22.10;68.08;101854.56;5009006;28;9556;-69
2023/09/06 00:18:15;;;;;;;;;3.00;3.00;;;;;22.09;68.30;101852.91;4992730;28;8838;-69
2023/09/06 00:20:41;;;;;;;;;4.00;4.00;;;;;22.07;68.36;101855.03;4997653;28;8847;-69
2023/09/06 00:23:09;;;;;;;;;5.25;5.00;;;;;22.06;68.45;101852.56;5006558;28;8870;-71
2023/09/06 00:25:36;;;;;;;;;4.25;3.50;;;;;22.03;68.32;101853.88;5013456;28;8847;-70
2023/09/06 00:28:05;;;;;;;;;4.50;3.50;;;;;22.07;68.16;101854.22;5013329;28;8831;-70
2023/09/06 00:30:32;;;;;;;;;3.50;3.00;;;;;22.05;67.68;101853.63;5011756;28;8863;-70
2023/09/06 00:32:59;;;;;;;;;3.75;3.75;;;;;22.06;67.40;101853.38;5011965;28;8831;-70
2023/09/06 00:35:26;;;;;;;;;2.75;2.75;;;;;22.08;67.43;101856.72;5011864;28;8962;-70
2023/09/06 00:37:54;;;;;;;;;4.00;4.00;;;;;22.08;67.15;101853.13;5004417;28;8846;-70
2023/09/06 00:40:21;;;;;;;;;7.00;4.00;;;;;22.07;67.00;101849.56;5004769;28;8912;-69
2023/09/06 00:42:53;;;;;;;;;4.00;4.00;;;;;22.06;67.11;101847.06;4999695;28;8855;-70
2023/09/06 00:45:26;;;;;;;;;4.75;3.00;;;;;22.05;66.99;101848.16;5008449;28;8842;-70
2023/09/06 00:47:55;;;;;;;;;3.00;3.00;;;;;22.03;66.89;101847.56;4992133;28;8834;-69
2023/09/06 00:50:23;;;;;;;;;5.25;4.50;;;;;21.97;66.87;101852.97;4991983;28;8972;-70
2023/09/06 00:52:51;;;;;;;;;4.50;4.50;;;;;21.95;67.02;101855.09;5007530;28;8842;-70
2023/09/06 00:55:18;;;;;;;;;6.50;5.25;;;;;21.90;67.08;101854.19;5007942;28;8865;-69
2023/09/06 00:57:45;;;;;;;;;4.50;2.75;;;;;21.86;67.19;101855.75;5011261;28;8854;-70
2023/09/06 01:00:20;;;;;;;;;2.75;2.75;;;;;21.81;67.27;101850.19;5011276;28;8857;-70
2023/09/06 01:02:47;;;;;;;;;4.50;4.50;;;;;21.79;67.28;101855.88;4993789;28;8909;-69
2023/09/06 01:05:15;;;;;;;;;3.50;3.50;;;;;21.77;67.18;101849.81;5011438;28;8937;-70
2023/09/06 01:07:49;;;;;;;;;5.75;4.25;;;;;21.76;67.29;101848.16;5011490;28;8858;-70
2023/09/06 01:10:15;;;;;;;;;4.75;4.00;;;;;21.75;67.40;101848.41;5007647;28;8849;-69
2023/09/06 01:12:42;;;;;;;;;4.75;4.00;;;;;21.71;67.27;101843.44;5000601;28;8843;-69
2023/09/06 01:15:10;;;;;;;;;3.75;3.75;;;;;21.68;67.18;101837.59;5005270;28;9624;-69
2023/09/06 01:17:39;;;;;;;;;3.00;3.00;;;;;21.68;67.24;101846.66;5011226;28;8854;-69
2023/09/06 01:20:23;;;;;;;;;5.25;5.25;;;;;21.69;67.10;101842.00;5012014;28;9562;-69
2023/09/06 01:23:31;;;;;;;;;5.00;3.75;;;;;21.66;67.24;101837.81;5011086;28;8823;-69
2023/09/06 01:25:58;;;;;;;;;4.50;4.00;;;;;21.63;67.03;101841.06;5009691;28;8859;-69
2023/09/06 01:28:27;;;;;;;;;3.25;3.25;;;;;21.60;66.81;101844.28;5005054;28;8915;-69
2023/09/06 01:30:55;;;;;;;;;3.00;3.00;;;;;21.60;66.98;101843.47;5022730;28;8831;-69
2023/09/06 01:33:22;;;;;;;;;3.75;3.75;;;;;21.60;66.41;101844.28;5012056;28;8827;-69
2023/09/06 01:35:49;;;;;;;;;5.50;4.00;;;;;21.58;66.71;101846.44;5010812;28;8930;-70
2023/09/06 01:38:16;;;;;;;;;2.75;2.75;;;;;21.54;66.71;101853.47;5004756;28;8908;-69
2023/09/06 01:40:43;;;;;;;;;4.25;3.00;;;;;21.51;66.82;101847.63;5009369;28;8870;-69
2023/09/06 01:43:10;;;;;;;;;3.00;3.00;;;;;21.48;66.76;101849.81;5010565;28;8847;-70
2023/09/06 01:45:38;;;;;;;;;2.75;2.75;;;;;21.48;66.99;101847.06;5011520;28;8835;-70
2023/09/06 01:48:05;;;;;;;;;4.50;4.50;;;;;21.48;66.78;101854.47;5011231;28;8913;-69
2023/09/06 01:50:31;;;;;;;;;4.75;4.75;;;;;21.47;66.88;101855.50;5004517;28;8855;-69
2023/09/06 01:52:58;;;;;;;;;5.00;5.00;;;;;21.42;66.99;101858.16;5010401;28;8835;-69
2023/09/06 01:55:24;;;;;;;;;7.00;5.00;;;;;21.38;67.28;101849.56;5010642;28;8920;-69
2023/09/06 01:57:50;;;;;;;;;5.00;4.75;;;;;21.33;67.47;101856.88;4990887;28;8861;-69
2023/09/06 02:00:28;;;;;;;;;5.75;4.50;;;;;21.26;67.48;101853.38;4990822;28;8864;-69
2023/09/06 02:02:55;;;;;;;;;5.00;4.00;;;;;21.21;67.70;101848.63;4990699;28;8861;-69
2023/09/06 02:05:22;;;;;;;;;4.25;4.25;;;;;21.16;67.84;101857.56;5008770;28;8831;-69
2023/09/06 02:07:49;;;;;;;;;6.50;5.75;;;;;21.12;68.03;101858.31;5010361;28;8846;-69
2023/09/06 02:10:16;;;;;;;;;4.50;4.50;;;;;21.06;68.11;101854.59;5011413;28;8857;-69
2023/09/06 02:12:43;;;;;;;;;4.75;4.75;;;;;21.02;68.20;101856.16;4999820;28;8868;-70
2023/09/06 02:15:14;;;;;;;;;4.75;4.75;;;;;20.96;68.53;101848.91;4990864;28;9662;-69
2023/09/06 02:17:42;;;;;;;;;4.25;4.25;;;;;20.94;68.63;101851.91;5002704;28;8973;-69
2023/09/06 02:20:16;;;;;;;;;6.25;6.00;;;;;20.92;68.54;101853.19;5000484;28;8929;-69
2023/09/06 02:22:44;;;;;;;;;4.75;4.75;;;;;20.90;68.73;101855.31;5011157;28;8855;-69
2023/09/06 02:25:13;;;;;;;;;5.00;5.00;;;;;20.87;68.80;101850.34;5010080;28;8904;-69
2023/09/06 02:27:43;;;;;;;;;5.50;5.50;;;;;20.84;68.98;101850.81;5008352;28;8873;-69
2023/09/06 02:30:09;;;;;;;;;4.25;3.50;;;;;20.81;69.02;101859.50;4989911;28;8894;-69
2023/09/06 02:32:36;;;;;;;;;7.00;6.00;;;;;20.78;69.30;101855.31;4992887;28;8871;-69
2023/09/06 02:35:03;;;;;;;;;4.75;4.75;;;;;20.74;69.04;101857.72;5007910;28;8854;-70
2023/09/06 02:37:29;;;;;;;;;6.00;4.75;;;;;20.71;69.33;101858.19;5000105;28;8924;-69
2023/09/06 02:39:56;;;;;;;;;5.75;5.75;;;;;20.69;69.15;101860.31;5004921;28;9627;-68
2023/09/06 02:42:23;;;;;;;;;4.25;4.25;;;;;20.69;69.56;101860.31;5007675;28;9470;-69
2023/09/06 02:44:50;;;;;;;;;4.00;4.00;;;;;20.70;69.48;101862.00;5009441;28;8929;-69
2023/09/06 02:47:17;;;;;;;;;6.75;5.25;;;;;20.71;69.39;101862.84;4997996;28;8842;-70
2023/09/06 02:49:45;;;;;;;;;5.50;5.50;;;;;20.69;69.38;101868.53;5008791;28;8847;-69
2023/09/06 02:52:20;;;;;;;;;7.50;5.50;;;;;20.66;69.28;101870.91;5009491;28;8847;-69
2023/09/06 02:54:47;;;;;;;;;5.25;5.25;;;;;20.64;69.35;101873.88;5010767;28;8824;-69
2023/09/06 02:57:17;;;;;;;;;6.50;5.50;;;;;20.61;69.44;101871.59;5003388;28;8841;-68
2023/09/06 02:59:45;;;;;;;;;6.00;6.00;;;;;20.60;69.56;101866.38;4990101;28;8889;-69
2023/09/06 03:02:12;;;;;;;;;4.00;4.00;;;;;20.57;69.52;101870.41;5005821;28;8838;-68
2023/09/06 03:04:40;;;;;;;;;6.75;6.75;;;;;20.56;69.66;101876.97;5009271;28;8835;-69
2023/09/06 03:07:08;;;;;;;;;5.00;5.00;;;;;20.52;69.66;101875.75;5009484;28;8835;-68
2023/09/06 03:09:38;;;;;;;;;6.00;6.00;;;;;20.50;69.74;101866.97;5005693;28;8834;-69
2023/09/06 03:12:14;;;;;;;;;9.25;6.25;;;;;20.51;69.84;101867.81;4989223;28;8841;-69
2023/09/06 03:14:48;;;;;;;;;6.00;6.00;;;;;20.50;69.65;101866.97;4989628;28;8830;-68
2023/09/06 03:17:18;;;;;;;;;6.75;5.25;;;;;20.50;69.89;101869.72;5004367;28;8850;-70
2023/09/06 03:19:48;;;;;;;;;4.50;4.50;;;;;20.49;69.54;101865.28;5000626;28;8962;-69
2023/09/06 03:22:15;;;;;;;;;6.50;5.25;;;;;20.48;69.36;101871.81;5008591;28;8993;-69
2023/09/06 03:24:43;;;;;;;;;6.25;5.75;;;;;20.47;69.47;101872.88;5008244;28;8847;-69
2023/09/06 03:27:16;;;;;;;;;6.50;6.50;;;;;20.43;69.81;101875.25;5010228;28;8827;-68
2023/09/06 03:29:50;;;;;;;;;5.50;5.00;;;;;20.43;69.60;101879.88;5005756;28;8835;-69
2023/09/06 03:32:20;;;;;;;;;4.00;4.00;;;;;20.39;69.65;101873.22;5005453;28;8968;-69
2023/09/06 03:34:47;;;;;;;;;5.00;5.00;;;;;20.35;69.87;101880.22;5005689;28;9557;-68
2023/09/06 03:37:18;;;;;;;;;5.50;5.50;;;;;20.32;69.87;101883.41;4989425;28;8900;-69
2023/09/06 03:39:47;;;;;;;;;7.00;7.00;;;;;20.29;69.76;101884.72;4990118;28;8867;-69
2023/09/06 03:42:15;;;;;;;;;6.25;5.25;;;;;20.25;69.91;101888.97;4989511;28;8842;-69
2023/09/06 03:44:42;;;;;;;;;7.50;6.00;;;;;20.23;70.15;101891.13;5004371;28;9503;-68
2023/09/06 03:47:15;;;;;;;;;5.25;5.25;;;;;20.20;70.10;101891.59;5008562;28;8842;-69
2023/09/06 03:49:43;;;;;;;;;6.00;6.00;;;;;20.19;70.19;101892.66;5008914;28;8854;-71
2023/09/06 03:52:16;;;;;;;;;8.00;7.00;;;;;20.16;70.18;101887.66;4992437;28;8870;-68
2023/09/06 03:54:42;;;;;;;;;7.00;7.00;;;;;20.12;70.33;101895.47;5005200;28;8972;-68
2023/09/06 03:57:12;;;;;;;;;6.75;5.75;;;;;20.10;70.66;101902.25;4996384;28;8855;-68
2023/09/06 03:59:40;;;;;;;;;5.00;5.00;;;;;20.08;70.67;101902.47;5007343;28;8965;-70
2023/09/06 04:02:08;;;;;;;;;4.00;4.00;;;;;20.07;70.68;101900.00;4990417;28;8884;-69
2023/09/06 04:04:34;;;;;;;;;7.75;7.75;;;;;20.04;70.69;101901.28;5006637;28;8886;-68
2023/09/06 04:07:02;;;;;;;;;5.00;5.00;;;;;20.00;70.80;101900.06;5008772;28;8839;-68
2023/09/06 04:09:37;;;;;;;;;6.50;6.50;;;;;19.98;70.88;101896.75;5008298;28;9589;-68
2023/09/06 04:12:07;;;;;;;;;6.00;6.00;;;;;19.96;70.99;101893.41;5008072;28;8937;-68
2023/09/06 04:14:38;;;;;;;;;8.00;8.00;;;;;19.94;70.96;101898.28;5005796;28;8827;-68
2023/09/06 04:17:07;;;;;;;;;7.25;6.50;;;;;19.91;71.13;101899.56;5000304;28;8835;-69
2023/09/06 04:19:36;;;;;;;;;7.00;7.00;;;;;19.89;71.11;101893.50;5008557;28;8851;-69
2023/09/06 04:22:02;;;;;;;;;9.75;7.00;;;;;19.87;71.09;101894.78;4992055;28;8882;-68
2023/09/06 04:24:35;;;;;;;;;6.00;6.00;;;;;19.84;71.24;101892.50;4993182;28;8961;-69
2023/09/06 04:27:04;;;;;;;;;8.00;8.00;;;;;19.82;71.41;101891.91;5007646;28;8835;-69
2023/09/06 04:29:31;;;;;;;;;5.50;5.50;;;;;19.80;71.36;101894.03;5007699;28;8865;-68
2023/09/06 04:31:58;;;;;;;;;10.00;9.00;;;;;19.78;71.43;101894.28;5004506;28;8854;-69
2023/09/06 04:34:26;;;;;;;;;8.50;8.00;;;;;19.76;71.66;101897.22;5002689;28;9610;-69
2023/09/06 04:36:53;;;;;;;;;5.75;5.50;;;;;19.74;71.50;101899.34;5010718;28;8909;-68
2023/09/06 04:39:20;;;;;;;;;6.50;6.50;;;;;19.72;71.78;101887.81;5011867;28;8874;-67
2023/09/06 04:41:46;;;;;;;;;8.75;6.50;;;;;19.69;71.68;101888.28;5007676;28;9486;-69
2023/09/06 04:44:13;;;;;;;;;7.25;7.25;;;;;19.69;71.82;101884.72;5011730;28;8843;-69
2023/09/06 04:46:40;;;;;;;;;7.50;6.75;;;;;19.68;71.87;101894.81;5008369;28;8854;-68
2023/09/06 04:49:07;;;;;;;;;8.00;8.00;;;;;19.68;71.85;101894.81;4996045;28;8826;-68
2023/09/06 04:51:34;;;;;;;;;7.50;7.25;;;;;19.67;71.72;101895.03;5009621;28;8858;-68
2023/09/06 04:54:03;;;;;;;;;7.00;6.50;;;;;19.66;71.90;101904.31;5011728;28;8877;-68
2023/09/06 04:56:33;;;;;;;;;5.25;5.25;;;;;19.63;71.95;101902.84;4996006;28;8824;-69
2023/09/06 04:59:00;;;;;;;;;8.00;6.75;;;;;19.63;71.86;101900.13;5011507;28;8989;-68
2023/09/06 05:01:27;;;;;;;;;8.75;7.00;;;;;19.63;71.97;101900.13;4994070;28;8854;-69
2023/09/06 05:03:55;;;;;;;;;7.00;7.00;;;;;19.62;71.98;101903.94;5017335;28;8856;-68
2023/09/06 05:06:22;;;;;;;;;7.00;5.75;;;;;19.59;71.88;101898.88;4999112;28;8980;-68
2023/09/06 05:08:50;;;;;;;;;7.75;7.75;;;;;19.57;72.20;101901.03;5011364;28;8947;-68
2023/09/06 05:11:20;;;;;;;;;7.50;7.50;;;;;19.56;72.14;101904.78;5010995;28;8847;-68
2023/09/06 05:13:49;;;;;;;;;6.25;6.25;;;;;19.55;72.31;101908.59;4995972;28;8842;-70
2023/09/06 05:16:17;;;;;;;;;5.75;5.75;;;;;19.55;72.24;101905.88;5011296;28;8839;-70
2023/09/06 05:18:43;;;;;;;;;7.50;6.50;;;;;19.55;72.35;101908.59;5007916;28;9584;-69
2023/09/06 05:21:13;;;;;;;;;7.75;7.50;;;;;19.57;72.38;101916.53;5011352;28;9660;-69
2023/09/06 05:23:39;;;;;;;;;7.00;6.75;;;;;19.57;72.23;101917.41;5010108;28;8831;-69
2023/09/06 05:26:06;;;;;;;;;6.75;6.75;;;;;19.59;72.22;101915.25;5026566;28;8905;-70
2023/09/06 05:28:42;;;;;;;;;4.75;4.75;;;;;19.60;72.06;101919.66;5011094;28;8843;-70
2023/09/06 05:31:09;;;;;;;;;6.00;6.00;;;;;19.62;72.19;101920.31;4994486;28;8839;-71
2023/09/06 05:33:41;;;;;;;;;5.00;5.00;;;;;19.64;71.90;101920.06;5011148;28;8990;-70
2023/09/06 05:36:10;;;;;;;;;6.75;6.50;;;;;19.68;71.96;101929.47;5007265;28;8885;-70
2023/09/06 05:38:37;;;;;;;;;8.00;8.00;;;;;19.70;71.94;101922.75;4995608;28;8856;-70
2023/09/06 05:41:05;;;;;;;;;7.75;7.75;;;;;19.72;71.83;101926.06;4994136;28;8981;-70
2023/09/06 05:43:36;;;;;;;;;6.25;6.25;;;;;19.74;71.72;101929.41;5010730;28;8834;-70
2023/09/06 05:46:02;;;;;;;;;7.00;7.00;;;;;19.75;71.50;101935.72;5010826;28;8862;-70
2023/09/06 05:48:48;;;;;;;;;4.00;4.00;;;;;19.79;72.00;101936.09;4996210;28;8831;-70
2023/09/06 05:51:14;;;;;;;;;4.50;4.50;;;;;19.80;71.56;101935.00;5010231;28;8839;-69
2023/09/06 05:53:42;;;;;;;;;7.25;7.25;;;;;19.80;71.43;101941.31;5001962;28;8851;-70
2023/09/06 05:56:09;;;;;;;;;5.75;5.00;;;;;19.80;71.53;101943.22;4994195;28;8944;-69
2023/09/06 05:58:38;;;;;;;;;6.00;6.00;;;;;19.79;71.58;101941.56;5008594;28;8925;-70
2023/09/06 06:01:06;;;;;;;;;8.75;7.00;;;;;19.81;71.67;101940.28;5010038;28;8994;-70
2023/09/06 06:03:33;;;;;;;;;8.25;8.25;;;;;19.83;71.60;101938.13;5001554;28;8843;-69
2023/09/06 06:05:59;;;;;;;;;6.50;6.25;;;;;19.86;71.48;101936.84;5023413;28;8849;-71
2023/09/06 06:08:26;;;;;;;;;9.25;9.25;;;;;19.90;71.59;101940.78;5008748;28;8835;-70
2023/09/06 06:10:53;;;;;;;;;8.50;7.50;;;;;19.92;71.45;101933.19;5010495;28;8823;-69
2023/09/06 06:13:20;;;;;;;;;6.25;6.25;;;;;19.95;71.49;101940.94;5011349;28;8893;-70
2023/09/06 06:15:46;;;;;;;;;8.50;5.50;;;;;19.99;71.38;101944.88;4999938;28;8899;-70
2023/09/06 06:18:15;;;;;;;;;6.00;4.00;;;;;20.00;71.35;101938.34;4996307;28;8821;-70
2023/09/06 06:20:42;;;;;;;;;7.75;6.25;;;;;20.04;71.29;101947.75;5009092;28;8891;-70
2023/09/06 06:23:10;;;;;;;;;5.00;5.00;;;;;20.07;71.19;101938.25;5010019;28;8915;-70
2023/09/06 06:25:38;;;;;;;;;7.50;6.00;;;;;20.06;71.49;101944.78;5010476;28;9114;-69
2023/09/06 06:28:05;;;;;;;;;3.75;3.75;;;;;20.09;71.46;101945.13;5011199;28;8842;-70
2023/09/06 06:30:32;;;;;;;;;4.75;4.75;;;;;20.12;71.32;101946.59;5010754;28;8865;-70
2023/09/06 06:33:00;;;;;;;;;6.25;3.50;;;;;20.14;71.47;101952.69;5006996;28;8858;-70
2023/09/06 06:35:27;;;;;;;;;7.00;7.00;;;;;20.17;71.49;101947.56;5009726;28;8862;-70
2023/09/06 06:37:55;;;;;;;;;6.75;5.00;;;;;20.21;71.41;101950.66;5011031;28;8835;-70
2023/09/06 06:40:22;;;;;;;;;6.75;6.00;;;;;20.24;71.23;101950.22;5010914;28;8819;-70
2023/09/06 06:42:49;;;;;;;;;7.75;6.00;;;;;20.25;71.29;101950.00;4997009;28;8904;-70
2023/09/06 06:45:16;;;;;;;;;7.00;5.75;;;;;20.29;71.25;101947.59;4991138;28;8841;-70
2023/09/06 06:47:44;;;;;;;;;8.50;7.25;;;;;20.33;71.06;101954.28;5002732;28;8863;-69
2023/09/06 06:50:10;;;;;;;;;8.75;7.50;;;;;20.34;71.15;101949.66;5009485;28;8957;-69
2023/09/06 06:52:43;;;;;;;;;7.00;7.00;;;;;20.39;71.06;101949.78;5010722;28;8893;-70
2023/09/06 06:55:10;;;;;;;;;6.75;6.75;;;;;20.40;70.88;101956.94;5010995;28;8881;-70
2023/09/06 06:57:37;;;;;;;;;6.00;6.00;;;;;20.40;71.01;101962.41;5006472;28;8845;-70
2023/09/06 07:00:11;;;;;;;;;7.00;6.75;;;;;20.40;70.92;101959.66;4990688;28;8838;-70
2023/09/06 07:02:38;;;;;;;;;8.50;8.00;;;;;20.43;70.87;101961.94;5002781;28;8869;-70
2023/09/06 07:05:05;;;;;;;;;6.75;6.75;;;;;20.47;71.02;101955.75;5010343;28;8831;-70
2023/09/06 07:07:31;;;;;;;;;6.75;5.50;;;;;20.55;70.83;101960.09;5001928;28;8833;-70
2023/09/06 07:09:58;;;;;;;;;8.00;7.00;;;;;20.60;70.57;101967.59;5010152;28;8831;-70
2023/09/06 07:12:24;;;;;;;;;9.25;7.50;;;;;20.62;70.70;101974.53;5010141;28;8839;-69
2023/09/06 07:14:51;;;;;;;;;6.00;6.00;;;;;20.65;70.65;101965.81;4996981;28;8821;-70
2023/09/06 07:17:18;;;;;;;;;4.50;4.00;;;;;20.71;70.35;101978.59;4991693;28;8857;-70
2023/09/06 07:19:45;;;;;;;;;6.00;4.50;;;;;20.76;70.37;101974.31;4990545;28;8936;-70
2023/09/06 07:22:11;;;;;;;;;5.00;4.25;;;;;20.80;70.34;101973.59;5000139;28;9550;-70
2023/09/06 07:24:38;;;;;;;;;7.00;5.00;;;;;20.81;70.18;101978.00;4992741;28;8839;-70
2023/09/06 07:27:04;;;;;;;;;4.75;4.75;;;;;20.84;70.16;101974.81;5009192;28;8953;-69
2023/09/06 07:29:31;;;;;;;;;9.25;8.00;;;;;20.88;70.40;101978.72;5005755;28;8829;-70
2023/09/06 07:31:58;;;;;;;;;8.25;7.50;;;;;20.90;70.14;101973.00;4972999;28;8846;-69
2023/09/06 07:34:24;;;;;;;;;5.00;5.00;;;;;20.94;70.35;101982.41;4993263;28;8847;-70
2023/09/06 07:36:51;;;;;;;;;9.00;7.50;;;;;20.96;70.19;101975.66;5006826;28;8823;-69
2023/09/06 07:39:17;;;;;;;;;7.75;7.50;;;;;21.01;70.14;101980.41;5010361;28;9542;-69
2023/09/06 07:41:44;;;;;;;;;4.00;4.00;;;;;21.06;70.06;101980.53;5007946;28;8875;-70
2023/09/06 07:44:10;;;;;;;;;7.00;6.00;;;;;21.12;70.26;101984.25;5009962;28;8885;-70
2023/09/06 07:46:38;;;;;;;;;7.50;6.50;;;;;21.16;70.29;101983.53;4988697;28;8940;-70
2023/09/06 07:49:04;;;;;;;;;6.25;4.50;;;;;21.20;70.16;101981.16;4990677;28;8826;-70
2023/09/06 07:51:31;;;;;;;;;8.50;7.00;;;;;21.23;70.30;101984.25;4993258;28;8866;-69
2023/09/06 07:53:57;;;;;;;;;5.25;5.25;;;;;21.28;70.36;101982.72;5008723;28;8835;-69
2023/09/06 07:56:24;;;;;;;;;5.50;5.50;;;;;21.33;70.47;101985.59;5010147;28;8835;-70
2023/09/06 07:58:51;;;;;;;;;7.25;7.00;;;;;21.36;70.35;101991.44;5010007;28;8815;-70
2023/09/06 08:01:17;;;;;;;;;6.75;6.75;;;;;21.41;70.19;101996.19;5006487;28;8855;-70
2023/09/06 08:03:46;;;;;;;;;7.50;7.50;;;;;21.46;70.34;101994.41;4995628;28;8913;-70
2023/09/06 08:06:14;;;;;;;;;7.00;7.00;;;;;21.50;70.29;102002.13;5006269;28;8837;-71
2023/09/06 08:08:41;;;;;;;;;9.25;8.00;;;;;21.54;70.32;101995.94;4990327;28;8837;-71
2023/09/06 08:11:08;;;;;;;;;9.25;9.25;;;;;21.61;70.54;101996.66;4989606;28;8903;-70
2023/09/06 08:13:37;;;;;;;;;9.25;9.00;;;;;21.65;70.29;101997.00;5007140;28;9663;-70
2023/09/06 08:16:03;;;;;;;;;10.00;8.00;;;;;21.66;70.23;102001.41;5013541;28;8854;-70
2023/09/06 08:18:30;;;;;;;;;8.50;8.50;;;;;21.69;70.52;102001.78;5001162;28;8845;-69
2023/09/06 08:20:57;;;;;;;;;16.50;16.50;;;;;21.70;70.54;102003.44;4993314;28;8876;-69
2023/09/06 08:23:23;;;;;;;;;14.00;13.25;;;;;21.75;70.30;101999.13;5004661;28;8859;-70
2023/09/06 08:25:50;;;;;;;;;9.00;9.00;;;;;21.79;70.32;101987.44;5009562;28;8831;-69
2023/09/06 08:28:18;;;;;;;;;9.50;8.75;;;;;21.88;70.47;102009.88;5009324;28;8929;-70
2023/09/06 08:30:46;;;;;;;;;9.25;8.00;;;;;21.91;70.36;101998.38;5012926;28;8961;-70
2023/09/06 08:33:14;;;;;;;;;8.75;8.50;;;;;21.94;70.32;102009.72;5013472;28;8847;-70
2023/09/06 08:35:40;;;;;;;;;8.50;8.00;;;;;22.00;70.41;102013.41;5008516;28;8905;-70
2023/09/06 08:38:07;;;;;;;;;11.00;9.75;;;;;22.04;70.51;102014.59;4994534;28;8928;-69
2023/09/06 08:40:38;;;;;;;;;9.00;9.00;;;;;22.09;70.31;102000.97;5010470;28;8856;-70
2023/09/06 08:43:05;;;;;;;;;9.00;9.00;;;;;22.14;70.54;102005.75;5012868;28;8851;-69
2023/09/06 08:45:34;;;;;;;;;12.00;12.00;;;;;22.18;70.39;102005.03;5012977;28;8831;-70
2023/09/06 08:48:01;;;;;;;;;11.50;11.50;;;;;22.26;70.41;102013.94;5012005;28;8909;-72
2023/09/06 08:50:31;;;;;;;;;12.50;11.75;;;;;22.34;70.41;102008.06;5005712;28;8912;-69
2023/09/06 08:52:59;;;;;;;;;13.00;11.00;;;;;22.38;70.27;102012.00;4998728;28;8846;-70
2023/09/06 08:55:27;;;;;;;;;12.25;11.25;;;;;22.40;70.14;102012.56;5003800;28;8853;-69
2023/09/06 08:57:54;;;;;;;;;12.25;12.00;;;;;22.45;70.15;102015.44;4992083;28;8834;-69
2023/09/06 09:00:23;;;;;;;;;11.25;10.25;;;;;22.49;69.84;102026.75;4991687;28;8849;-70
2023/09/06 09:02:51;;;;;;;;;11.75;11.75;;;;;22.53;69.92;102017.78;4993169;28;8845;-70
2023/09/06 09:05:20;;;;;;;;;12.75;12.50;;;;;22.58;69.65;102019.78;4993268;28;8842;-70
2023/09/06 09:07:55;;;;;;;;;14.75;13.75;;;;;22.57;69.72;102018.97;5008616;28;8969;-70
2023/09/06 09:10:25;;;;;;;;;10.25;9.25;;;;;22.61;69.72;102019.31;5006910;28;9533;-69
2023/09/06 09:12:52;;;;;;;;;11.25;11.25;;;;;22.68;69.57;102020.78;4991680;28;8912;-70
2023/09/06 09:15:20;;;;;;;;;9.75;9.75;;;;;22.76;69.34;102024.22;4992869;28;8830;-71
2023/09/06 09:17:50;;;;;;;;;13.00;12.50;;;;;22.80;68.91;102025.41;4992993;28;8940;-70
2023/09/06 09:20:27;;;;;;;;;17.75;15.50;;;;;22.84;68.51;102019.16;4991123;28;8854;-70
2023/09/06 09:23:01;;;;;;;;;11.25;9.75;;;;;22.87;68.50;102020.59;4984111;28;8864;-70
2023/09/06 09:25:28;;;;;;;;;10.00;9.00;;;;;22.94;68.55;102018.56;5002401;28;8862;-69
2023/09/06 09:27:57;;;;;;;;;7.50;7.50;;;;;23.01;68.31;102012.88;5010188;28;8835;-71
2023/09/06 09:30:30;;;;;;;;;10.00;10.00;;;;;23.08;67.84;102022.63;4994405;28;8858;-70
2023/09/06 09:33:01;;;;;;;;;12.00;11.50;;;;;23.14;67.72;102024.38;5011952;28;8831;-70
2023/09/06 09:35:28;;;;;;;;;11.00;10.50;;;;;23.16;67.70;102026.88;5011876;28;9584;-69
2023/09/06 09:37:56;;;;;;;;;7.50;7.50;;;;;23.20;67.54;102017.88;5007570;28;8865;-69
2023/09/06 09:40:32;;;;;;;;;12.00;12.00;;;;;23.20;67.68;102017.06;5018521;28;8965;-71
2023/09/06 09:43:17;;;;;;;;;9.00;9.00;;;;;23.25;67.34;102021.78;5006045;28;8863;-71
2023/09/06 09:45:45;;;;;;;;;10.00;10.00;;;;;23.28;67.40;102013.88;5008297;28;9576;-71
2023/09/06 09:48:15;;;;;;;;;13.25;11.50;;;;;23.36;66.91;102018.94;4992261;28;8841;-70
2023/09/06 09:50:43;;;;;;;;;7.00;7.00;;;;;23.43;66.69;102021.53;4992266;28;8872;-70
2023/09/06 09:53:12;;;;;;;;;8.50;8.50;;;;;23.49;66.67;102017.78;4991901;28;8845;-70
2023/09/06 09:55:47;;;;;;;;;8.75;6.50;;;;;23.54;66.65;102019.78;5011047;28;8843;-70
2023/09/06 09:58:15;;;;;;;;;13.00;11.75;;;;;23.58;66.59;102021.78;5011750;28;8827;-70
2023/09/06 10:00:42;;;;;;;;;8.25;8.00;;;;;23.67;66.20;102023.03;5011380;28;8839;-70
2023/09/06 10:03:09;;;;;;;;;7.75;7.75;;;;;23.73;66.16;102023.91;5001467;28;8861;-70
2023/09/06 10:05:38;;;;;;;;;9.00;8.00;;;;;23.77;66.15;102018.75;4991605;28;8845;-70
2023/09/06 10:08:08;;;;;;;;;7.50;7.50;;;;;23.80;65.61;102016.31;4996885;28;8916;-71
2023/09/06 10:10:37;;;;;;;;;10.50;10.25;;;;;23.83;65.46;102010.31;5001358;28;8937;-70
2023/09/06 10:13:07;;;;;;;;;8.25;7.00;;;;;23.88;65.15;102013.13;5010945;28;8863;-71
2023/09/06 10:15:35;;;;;;;;;6.25;6.25;;;;;23.91;64.88;102006.31;5011462;28;8881;-67
2023/09/06 10:18:04;;;;;;;;;8.50;8.50;;;;;24.01;64.22;102008.34;5009546;28;8884;-72
2023/09/06 10:20:34;;;;;;;;;9.75;9.75;;;;;24.08;64.15;102012.56;4991617;28;8841;-70
2023/09/06 10:23:01;;;;;;;;;6.25;6.25;;;;;24.13;63.53;102007.13;4990061;28;8861;-70
2023/09/06 10:25:28;;;;;;;;;9.00;9.00;;;;;24.17;63.33;102002.75;4998999;28;8843;-70
2023/09/06 10:27:56;;;;;;;;;9.25;8.25;;;;;24.16;62.98;102000.28;5006408;28;8964;-70
2023/09/06 10:30:44;;;;;;;;;7.00;7.00;;;;;24.19;62.68;102005.28;4973627;28;8841;-71
2023/09/06 10:33:32;;;;;;;;;8.75;7.00;;;;;24.21;62.66;102007.75;4991325;28;8845;-70
2023/09/06 10:36:04;;;;;;;;;5.75;5.75;;;;;24.21;62.62;102002.25;4998727;28;8847;-71
2023/09/06 10:38:34;;;;;;;;;7.75;5.75;;;;;24.26;62.77;102005.06;4995990;28;8865;-69
2023/09/06 10:41:07;;;;;;;;;9.75;9.25;;;;;24.38;62.56;102003.03;5008120;28;8819;-71
2023/09/06 10:43:59;;;;;;;;;6.00;6.00;;;;;24.51;62.54;102004.53;5005622;28;8878;-70
2023/09/06 10:46:28;;;;;;;;;6.50;5.75;;;;;24.55;63.00;102006.53;5007356;28;8819;-70
2023/09/06 10:49:25;;;;;;;;;7.50;7.50;;;;;24.62;62.99;102004.38;5003838;28;8915;-70
2023/09/06 10:52:11;;;;;;;;;7.25;6.50;;;;;24.66;63.00;102000.00;4998090;28;8842;-70
2023/09/06 10:54:40;;;;;;;;;7.25;6.50;;;;;24.69;62.96;101995.09;5010660;28;9534;-70
2023/09/06 10:57:11;;;;;;;;;6.25;5.25;;;;;24.72;63.03;102002.84;4999466;28;8929;-70
2023/09/06 10:59:45;;;;;;;;;6.00;6.00;;;;;24.76;63.19;102002.06;5005180;28;8824;-71
2023/09/06 11:02:24;;;;;;;;;5.75;5.75;;;;;24.82;63.63;101998.22;5010498;28;8863;-70
2023/09/06 11:05:09;;;;;;;;;5.25;5.25;;;;;24.86;63.52;102002.13;5002159;28;8954;-69
2023/09/06 11:07:43;;;;;;;;;7.00;7.00;;;;;24.89;63.66;102000.78;5010508;28;8870;-70
2023/09/06 11:10:13;;;;;;;;;6.00;6.00;;;;;24.89;63.27;101995.28;5002331;28;8833;-71
2023/09/06 11:12:40;;;;;;;;;6.25;6.00;;;;;24.90;63.08;101996.94;4993896;28;8936;-68
2023/09/06 11:15:07;;;;;;;;;9.00;9.00;;;;;24.90;62.91;101994.19;5001903;28;9590;-69
2023/09/06 11:17:34;;;;;;;;;8.75;8.75;;;;;24.92;62.92;101989.25;4995581;28;8876;-68
2023/09/06 11:20:16;;;;;;;;;5.75;5.00;;;;;24.97;62.91;101992.03;5009796;28;8827;-69
2023/09/06 11:22:50;;;;;;;;;7.00;5.50;;;;;25.08;62.20;101993.78;5010320;28;8925;-68
2023/09/06 11:25:21;;;;;;;;;10.00;8.50;;;;;25.11;62.01;101985.00;5009160;28;8876;-70
2023/09/06 11:27:49;;;;;;;;;6.00;6.00;;;;;25.11;61.89;101986.94;5008887;28;8836;-68
2023/09/06 11:30:26;;;;;;;;;7.50;7.25;;;;;25.18;61.07;101984.78;5000114;28;8855;-69
2023/09/06 11:32:55;;;;;;;;;7.25;6.75;;;;;25.25;61.27;101987.31;5007989;28;8850;-68
2023/09/06 11:35:38;;;;;;;;;7.00;7.00;;;;;25.29;61.12;101983.78;5006177;28;9054;-68
2023/09/06 11:38:05;;;;;;;;;9.00;9.00;;;;;25.38;61.44;101992.38;5004341;28;9000;-70
2023/09/06 11:40:34;;;;;;;;;6.00;6.00;;;;;25.43;60.95;101989.63;4990332;28;9632;-68